Time;durP1;ratioP1;P1;durP2;ratioP2;P2;SDS_P1;SDS_P2;PMS_P1;PMS_P2;Temp;Humidity;BMP_temperature;BMP_pressure;BME280_temperature;BME280_humidity;BME280_pressure;Samples;Min_cycle;Max_cycle;Signal;HPM_P1;HPM_P2
2021/11/15 00:02:09;;;;;;;7.50;5.57;;;;;;;;;;5056123;28;20486;-82
2021/11/15 00:04:36;;;;;;;8.18;5.88;;;;;;;;;;5091436;28;20075;-81
2021/11/15 00:07:02;;;;;;;7.97;5.63;;;;;;;;;;5073728;28;20441;-81
2021/11/15 00:09:28;;;;;;;8.23;6.07;;;;;;;;;;5063229;28;20089;-81
2021/11/15 00:11:55;;;;;;;7.88;6.05;;;;;;;;;;5070196;28;20408;-82
2021/11/15 00:14:21;;;;;;;7.72;5.50;;;;;;;;;;5071035;28;20047;-82
2021/11/15 00:16:48;;;;;;;7.88;5.93;;;;;;;;;;5070610;28;20040;-82
2021/11/15 00:19:14;;;;;;;7.05;5.90;;;;;;;;;;5050986;28;20399;-82
2021/11/15 00:21:40;;;;;;;8.75;6.22;;;;;;;;;;5070266;28;20135;-82
2021/11/15 00:24:07;;;;;;;9.43;6.47;;;;;;;;;;5067429;28;20051;-82
2021/11/15 00:26:33;;;;;;;7.78;5.65;;;;;;;;;;5090134;28;20080;-82
2021/11/15 00:28:59;;;;;;;9.45;6.22;;;;;;;;;;5090192;28;20083;-82
2021/11/15 00:31:25;;;;;;;7.35;5.68;;;;;;;;;;5088818;28;20043;-82
2021/11/15 00:33:52;;;;;;;7.13;6.35;;;;;;;;;;5056054;28;20097;-82
2021/11/15 00:36:19;;;;;;;9.52;6.20;;;;;;;;;;5089401;28;20044;-82
2021/11/15 00:38:45;;;;;;;8.95;6.18;;;;;;;;;;5069836;28;20040;-82
2021/11/15 00:41:12;;;;;;;8.15;6.15;;;;;;;;;;5084125;28;20101;-82
2021/11/15 00:43:38;;;;;;;6.97;6.07;;;;;;;;;;5086871;28;20044;-81
2021/11/15 00:46:05;;;;;;;9.52;6.18;;;;;;;;;;5066387;28;20048;-83
2021/11/15 00:48:31;;;;;;;8.00;6.20;;;;;;;;;;5088962;28;20051;-82
2021/11/15 00:50:57;;;;;;;8.32;6.05;;;;;;;;;;5080903;28;20040;-81
2021/11/15 00:53:24;;;;;;;8.32;6.53;;;;;;;;;;5072422;28;20071;-82
2021/11/15 00:55:50;;;;;;;9.40;6.20;;;;;;;;;;5056509;28;20130;-81
2021/11/15 00:58:16;;;;;;;10.15;6.72;;;;;;;;;;5072392;28;20093;-81
2021/11/15 01:00:43;;;;;;;10.95;6.70;;;;;;;;;;5089323;28;20094;-82
2021/11/15 01:03:13;;;;;;;8.20;6.63;;;;;;;;;;5061321;28;20046;-83
2021/11/15 01:05:39;;;;;;;8.45;6.57;;;;;;;;;;5056380;28;20695;-81
2021/11/15 01:08:06;;;;;;;8.57;6.60;;;;;;;;;;5061702;28;20106;-81
2021/11/15 01:10:33;;;;;;;8.95;6.88;;;;;;;;;;5085811;28;20036;-81
2021/11/15 01:13:00;;;;;;;7.50;5.95;;;;;;;;;;5072477;28;20082;-81
2021/11/15 01:15:27;;;;;;;8.27;6.20;;;;;;;;;;5089116;28;20047;-81
2021/11/15 01:17:53;;;;;;;8.80;6.78;;;;;;;;;;5052551;28;20132;-81
2021/11/15 01:20:22;;;;;;;7.70;6.40;;;;;;;;;;5059151;28;20472;-81
2021/11/15 01:22:48;;;;;;;8.82;6.55;;;;;;;;;;5069292;28;20128;-81
2021/11/15 01:25:15;;;;;;;8.20;6.30;;;;;;;;;;5071601;28;20093;-81
2021/11/15 01:27:42;;;;;;;8.18;6.20;;;;;;;;;;5069284;28;20048;-81
2021/11/15 01:30:10;;;;;;;8.95;6.60;;;;;;;;;;5087206;28;20036;-81
2021/11/15 01:32:37;;;;;;;8.50;6.10;;;;;;;;;;5088455;28;20050;-81
2021/11/15 01:35:03;;;;;;;9.30;6.95;;;;;;;;;;5087022;28;20040;-81
2021/11/15 01:37:29;;;;;;;9.70;5.82;;;;;;;;;;5076801;28;20039;-81
2021/11/15 01:39:56;;;;;;;8.73;6.82;;;;;;;;;;5072296;28;20475;-81
2021/11/15 01:42:22;;;;;;;7.05;6.03;;;;;;;;;;5089437;28;20028;-81
2021/11/15 01:44:48;;;;;;;10.63;7.13;;;;;;;;;;5068538;28;20062;-82
2021/11/15 01:47:14;;;;;;;9.43;7.10;;;;;;;;;;5086979;28;20391;-82
2021/11/15 01:49:41;;;;;;;8.13;6.43;;;;;;;;;;5068826;28;20464;-81
2021/11/15 01:52:07;;;;;;;8.50;6.75;;;;;;;;;;5068577;28;20383;-81
2021/11/15 01:54:34;;;;;;;9.70;6.47;;;;;;;;;;5088122;28;20126;-82
2021/11/15 01:57:00;;;;;;;7.70;6.25;;;;;;;;;;5069317;28;20052;-82
2021/11/15 01:59:26;;;;;;;8.90;6.35;;;;;;;;;;5088329;28;20040;-82
2021/11/15 02:01:52;;;;;;;9.73;6.60;;;;;;;;;;5068491;28;20059;-82
2021/11/15 02:04:18;;;;;;;9.20;6.35;;;;;;;;;;5050244;28;20045;-81
2021/11/15 02:06:44;;;;;;;7.95;6.13;;;;;;;;;;5067995;28;20084;-82
2021/11/15 02:09:10;;;;;;;7.40;6.25;;;;;;;;;;5083407;28;20044;-82
2021/11/15 02:11:36;;;;;;;8.70;6.45;;;;;;;;;;5055620;28;20067;-81
2021/11/15 02:14:06;;;;;;;8.23;6.07;;;;;;;;;;5065976;28;20589;-82
2021/11/15 02:16:32;;;;;;;8.55;6.53;;;;;;;;;;5067707;28;20045;-83
2021/11/15 02:18:59;;;;;;;8.80;6.78;;;;;;;;;;5081013;28;20790;-81
2021/11/15 02:21:25;;;;;;;8.40;6.07;;;;;;;;;;5051014;28;20039;-81
2021/11/15 02:23:52;;;;;;;8.63;6.72;;;;;;;;;;5059451;28;20051;-81
2021/11/15 02:26:19;;;;;;;10.05;6.97;;;;;;;;;;5070332;28;20039;-82
2021/11/15 02:28:47;;;;;;;9.07;6.32;;;;;;;;;;5068564;28;20430;-81
2021/11/15 02:31:14;;;;;;;10.23;6.57;;;;;;;;;;5066761;28;20032;-81
2021/11/15 02:33:41;;;;;;;8.70;6.28;;;;;;;;;;5067920;28;20047;-81
2021/11/15 02:36:08;;;;;;;8.55;6.57;;;;;;;;;;5065719;28;20040;-81
2021/11/15 02:38:35;;;;;;;7.38;5.88;;;;;;;;;;5070631;28;20480;-81
2021/11/15 02:41:01;;;;;;;8.90;6.88;;;;;;;;;;5068371;28;20082;-81
2021/11/15 02:43:27;;;;;;;7.57;5.78;;;;;;;;;;5085987;28;20072;-81
2021/11/15 02:45:53;;;;;;;11.20;7.13;;;;;;;;;;5068082;28;20472;-81
2021/11/15 02:48:20;;;;;;;7.63;6.03;;;;;;;;;;5067107;28;20048;-82
2021/11/15 02:50:47;;;;;;;8.00;6.22;;;;;;;;;;5068097;28;20048;-81
2021/11/15 02:53:13;;;;;;;7.70;6.00;;;;;;;;;;5066055;28;20074;-81
2021/11/15 02:55:39;;;;;;;7.82;6.10;;;;;;;;;;5067576;28;20048;-81
2021/11/15 02:58:06;;;;;;;7.03;6.13;;;;;;;;;;5067109;28;20114;-81
2021/11/15 03:00:39;;;;;;;8.35;6.13;;;;;;;;;;5071247;28;20048;-81
2021/11/15 03:03:05;;;;;;;8.35;6.22;;;;;;;;;;5089538;28;20063;-81
2021/11/15 03:05:33;;;;;;;8.40;6.15;;;;;;;;;;5091173;28;20086;-81
2021/11/15 03:07:59;;;;;;;8.73;6.03;;;;;;;;;;5074617;28;20051;-81
2021/11/15 03:10:25;;;;;;;8.18;5.70;;;;;;;;;;5073976;28;20069;-80
2021/11/15 03:12:53;;;;;;;8.07;6.22;;;;;;;;;;5071715;28;20056;-81
2021/11/15 03:15:26;;;;;;;8.90;6.47;;;;;;;;;;5065644;28;20068;-81
2021/11/15 03:17:54;;;;;;;7.85;6.28;;;;;;;;;;5071271;28;20041;-82
2021/11/15 03:20:20;;;;;;;7.07;5.60;;;;;;;;;;5073093;28;20040;-82
2021/11/15 03:22:46;;;;;;;7.63;5.90;;;;;;;;;;5072716;28;20045;-82
2021/11/15 03:25:12;;;;;;;8.73;6.43;;;;;;;;;;5071592;28;20048;-82
2021/11/15 03:27:38;;;;;;;8.73;6.28;;;;;;;;;;5085021;28;20051;-81
2021/11/15 03:30:05;;;;;;;7.28;5.60;;;;;;;;;;5071006;28;20102;-81
2021/11/15 03:32:31;;;;;;;7.20;5.47;;;;;;;;;;5070244;28;20122;-83
2021/11/15 03:34:59;;;;;;;8.18;5.88;;;;;;;;;;5070919;28;20428;-81
2021/11/15 03:37:25;;;;;;;8.15;5.82;;;;;;;;;;5064677;28;20044;-81
2021/11/15 03:39:51;;;;;;;9.43;6.07;;;;;;;;;;5074135;28;20043;-82
2021/11/15 03:42:17;;;;;;;7.20;5.55;;;;;;;;;;5074776;28;20036;-81
2021/11/15 03:44:43;;;;;;;6.25;5.53;;;;;;;;;;5070963;28;20062;-81
2021/11/15 03:47:09;;;;;;;7.30;5.95;;;;;;;;;;5087901;28;20417;-81
2021/11/15 03:49:35;;;;;;;8.13;5.93;;;;;;;;;;5066254;28;20052;-82
2021/11/15 03:52:01;;;;;;;7.35;5.30;;;;;;;;;;5070759;28;20499;-81
2021/11/15 03:54:27;;;;;;;8.85;6.03;;;;;;;;;;5064663;28;20173;-82
2021/11/15 03:56:53;;;;;;;7.32;5.50;;;;;;;;;;5073586;28;20055;-81
2021/11/15 03:59:19;;;;;;;8.02;5.68;;;;;;;;;;5070926;28;20048;-82
2021/11/15 04:01:46;;;;;;;9.50;6.18;;;;;;;;;;5050294;28;20131;-82
2021/11/15 04:04:17;;;;;;;9.25;5.65;;;;;;;;;;5091099;28;20047;-82
2021/11/15 04:06:50;;;;;;;7.72;5.85;;;;;;;;;;5090433;28;20216;-82
2021/11/15 04:09:17;;;;;;;8.82;6.18;;;;;;;;;;5057415;28;20131;-82
2021/11/15 04:11:43;;;;;;;7.88;5.90;;;;;;;;;;5078400;28;20101;-82
2021/11/15 04:14:15;;;;;;;8.50;5.60;;;;;;;;;;5085508;28;20058;-82
2021/11/15 04:16:42;;;;;;;8.13;6.13;;;;;;;;;;5086751;28;20051;-82
2021/11/15 04:19:11;;;;;;;7.78;5.80;;;;;;;;;;5056346;28;20119;-82
2021/11/15 04:21:37;;;;;;;7.88;5.85;;;;;;;;;;5085204;28;20499;-83
2021/11/15 04:24:05;;;;;;;8.27;5.70;;;;;;;;;;5084371;28;20507;-82
2021/11/15 04:26:32;;;;;;;7.38;5.65;;;;;;;;;;5054633;28;20040;-81
2021/11/15 04:28:58;;;;;;;9.13;6.10;;;;;;;;;;5053600;28;20046;-81
2021/11/15 04:31:24;;;;;;;6.72;5.68;;;;;;;;;;5072089;28;20044;-81
2021/11/15 04:33:50;;;;;;;9.75;5.55;;;;;;;;;;5076148;28;20128;-81
2021/11/15 04:36:16;;;;;;;8.77;6.00;;;;;;;;;;5058781;28;20388;-82
2021/11/15 04:38:43;;;;;;;7.88;5.70;;;;;;;;;;5053067;28;20380;-81
2021/11/15 04:41:09;;;;;;;6.72;5.55;;;;;;;;;;5054742;28;20039;-82
2021/11/15 04:43:35;;;;;;;7.05;5.50;;;;;;;;;;5073508;28;20419;-81
2021/11/15 04:46:01;;;;;;;7.30;5.43;;;;;;;;;;5053208;28;20062;-81
2021/11/15 04:48:28;;;;;;;7.28;5.53;;;;;;;;;;5069808;28;20044;-81
2021/11/15 04:50:54;;;;;;;6.53;5.53;;;;;;;;;;5063905;28;20040;-81
2021/11/15 04:53:21;;;;;;;7.00;5.80;;;;;;;;;;5059975;28;20055;-81
2021/11/15 04:55:47;;;;;;;6.50;5.50;;;;;;;;;;5057046;28;20774;-81
2021/11/15 04:58:13;;;;;;;7.07;5.57;;;;;;;;;;5053952;28;20131;-81
2021/11/15 05:00:39;;;;;;;6.95;5.70;;;;;;;;;;5069083;28;20041;-81
2021/11/15 05:03:05;;;;;;;7.82;5.25;;;;;;;;;;5069904;28;20090;-81
2021/11/15 05:05:32;;;;;;;6.80;5.55;;;;;;;;;;5055739;28;20048;-81
2021/11/15 05:07:58;;;;;;;6.32;5.20;;;;;;;;;;5052817;28;20040;-81
2021/11/15 05:10:26;;;;;;;7.70;5.45;;;;;;;;;;5052122;28;20040;-81
2021/11/15 05:12:53;;;;;;;5.97;5.38;;;;;;;;;;5068756;28;20056;-81
2021/11/15 05:15:19;;;;;;;5.93;5.03;;;;;;;;;;5067025;28;20499;-81
2021/11/15 05:17:47;;;;;;;6.15;5.35;;;;;;;;;;5068747;28;20040;-81
2021/11/15 05:20:13;;;;;;;7.72;5.78;;;;;;;;;;5088979;28;20102;-81
2021/11/15 05:22:39;;;;;;;7.57;5.72;;;;;;;;;;5088543;28;20040;-81
2021/11/15 05:25:06;;;;;;;6.63;5.05;;;;;;;;;;5072826;28;20039;-81
2021/11/15 05:27:32;;;;;;;7.40;5.18;;;;;;;;;;5089075;28;20174;-83
2021/11/15 05:29:58;;;;;;;7.70;5.50;;;;;;;;;;5072479;28;20361;-81
2021/11/15 05:32:25;;;;;;;6.90;5.28;;;;;;;;;;5089037;28;20048;-81
2021/11/15 05:34:51;;;;;;;8.35;5.65;;;;;;;;;;5088650;28;20110;-81
2021/11/15 05:37:17;;;;;;;7.32;5.57;;;;;;;;;;5089314;28;20064;-81
2021/11/15 05:39:44;;;;;;;7.13;5.18;;;;;;;;;;5088309;28;20036;-81
2021/11/15 05:42:10;;;;;;;8.20;5.93;;;;;;;;;;5069215;28;20070;-82
2021/11/15 05:44:36;;;;;;;9.02;5.65;;;;;;;;;;5100722;28;20048;-82
2021/11/15 05:47:02;;;;;;;6.53;5.60;;;;;;;;;;5088340;28;20040;-81
2021/11/15 05:49:28;;;;;;;6.30;5.45;;;;;;;;;;5089215;28;20040;-81
2021/11/15 05:51:54;;;;;;;6.25;5.15;;;;;;;;;;5067936;28;20040;-81
2021/11/15 05:54:21;;;;;;;7.80;5.63;;;;;;;;;;5082509;28;20058;-81
2021/11/15 05:56:47;;;;;;;7.15;5.78;;;;;;;;;;5071561;28;20043;-81
2021/11/15 05:59:13;;;;;;;7.72;5.30;;;;;;;;;;5068944;28;20411;-81
2021/11/15 06:01:40;;;;;;;7.15;5.90;;;;;;;;;;5065612;28;20048;-81
2021/11/15 06:04:06;;;;;;;8.70;6.03;;;;;;;;;;5060512;28;20467;-81
2021/11/15 06:06:32;;;;;;;6.25;5.05;;;;;;;;;;5051885;28;20469;-82
2021/11/15 06:08:58;;;;;;;6.93;4.90;;;;;;;;;;5086134;28;20085;-82
2021/11/15 06:11:25;;;;;;;7.68;5.85;;;;;;;;;;5054508;28;20080;-81
2021/11/15 06:13:51;;;;;;;6.50;5.22;;;;;;;;;;5080279;28;20082;-81
2021/11/15 06:16:17;;;;;;;7.07;5.38;;;;;;;;;;5051987;28;20089;-82
2021/11/15 06:18:44;;;;;;;6.97;5.60;;;;;;;;;;5078669;28;20040;-82
2021/11/15 06:21:10;;;;;;;7.18;5.75;;;;;;;;;;5070818;28;20589;-82
2021/11/15 06:23:36;;;;;;;8.07;5.75;;;;;;;;;;5068335;28;20040;-82
2021/11/15 06:26:02;;;;;;;6.70;5.57;;;;;;;;;;5067489;28;20062;-81
2021/11/15 06:28:29;;;;;;;9.43;6.15;;;;;;;;;;5085183;28;20040;-81
2021/11/15 06:30:55;;;;;;;7.57;5.30;;;;;;;;;;5064043;28;20593;-81
2021/11/15 06:33:21;;;;;;;8.07;5.68;;;;;;;;;;5092091;28;20036;-81
2021/11/15 06:35:47;;;;;;;6.63;5.55;;;;;;;;;;5091892;28;20162;-81
2021/11/15 06:38:13;;;;;;;7.75;5.90;;;;;;;;;;5058461;28;20039;-82
2021/11/15 06:40:40;;;;;;;6.22;5.28;;;;;;;;;;5092106;28;20051;-82
2021/11/15 06:43:06;;;;;;;8.07;5.85;;;;;;;;;;5073332;28;20119;-81
2021/11/15 06:45:33;;;;;;;6.93;5.45;;;;;;;;;;5075001;28;20036;-81
2021/11/15 06:47:59;;;;;;;8.82;5.32;;;;;;;;;;5071698;28;20044;-81
2021/11/15 06:50:25;;;;;;;8.23;5.53;;;;;;;;;;5091740;28;20032;-81
2021/11/15 06:52:52;;;;;;;5.78;5.22;;;;;;;;;;5091766;28;20051;-82
2021/11/15 06:55:19;;;;;;;7.15;5.90;;;;;;;;;;5091849;28;20410;-81
2021/11/15 06:57:45;;;;;;;7.70;6.35;;;;;;;;;;5071169;28;20439;-81
2021/11/15 07:00:16;;;;;;;6.38;5.50;;;;;;;;;;5071213;28;20119;-82
2021/11/15 07:02:42;;;;;;;5.93;5.25;;;;;;;;;;5071465;28;20040;-81
2021/11/15 07:05:11;;;;;;;8.20;5.30;;;;;;;;;;5069908;28;20130;-81
2021/11/15 07:07:37;;;;;;;6.95;5.50;;;;;;;;;;5071586;28;20063;-83
2021/11/15 07:10:05;;;;;;;5.45;4.60;;;;;;;;;;5075303;28;20045;-82
2021/11/15 07:12:31;;;;;;;5.32;4.50;;;;;;;;;;5068065;28;20135;-82
2021/11/15 07:14:57;;;;;;;5.38;4.82;;;;;;;;;;5054723;28;20044;-82
2021/11/15 07:17:23;;;;;;;6.57;5.22;;;;;;;;;;5048373;28;20071;-82
2021/11/15 07:19:50;;;;;;;5.45;4.82;;;;;;;;;;5074023;28;20131;-82
2021/11/15 07:22:16;;;;;;;4.95;4.45;;;;;;;;;;5074478;28;20055;-82
2021/11/15 07:24:42;;;;;;;4.97;4.47;;;;;;;;;;5071074;28;20424;-82
2021/11/15 07:27:08;;;;;;;5.22;4.72;;;;;;;;;;5064827;28;20107;-81
2021/11/15 07:29:34;;;;;;;5.32;4.80;;;;;;;;;;5091464;28;20061;-82
2021/11/15 07:32:01;;;;;;;5.60;4.70;;;;;;;;;;5070678;28;20052;-81
2021/11/15 07:34:28;;;;;;;5.07;4.60;;;;;;;;;;5068594;28;20048;-82
2021/11/15 07:36:55;;;;;;;5.57;4.78;;;;;;;;;;5070839;28;20052;-81
2021/11/15 07:39:21;;;;;;;5.15;4.50;;;;;;;;;;5067037;28;20040;-82
2021/11/15 07:41:48;;;;;;;5.15;4.55;;;;;;;;;;5086572;28;20076;-81
2021/11/15 07:44:15;;;;;;;5.28;4.38;;;;;;;;;;5081454;28;20593;-82
2021/11/15 07:46:41;;;;;;;7.15;5.18;;;;;;;;;;5090958;28;20502;-81
2021/11/15 07:49:07;;;;;;;4.70;4.20;;;;;;;;;;5070214;28;20049;-82
2021/11/15 07:51:34;;;;;;;5.10;3.75;;;;;;;;;;5049574;28;20040;-82
2021/11/15 07:54:00;;;;;;;4.38;3.85;;;;;;;;;;5090638;28;20047;-82
2021/11/15 07:56:26;;;;;;;4.82;4.43;;;;;;;;;;5091312;28;20040;-82
2021/11/15 07:58:52;;;;;;;4.95;4.10;;;;;;;;;;5073597;28;20394;-82
2021/11/15 08:01:18;;;;;;;4.95;4.47;;;;;;;;;;5057000;28;20090;-81
2021/11/15 08:03:44;;;;;;;4.47;4.03;;;;;;;;;;5066291;28;20102;-82
2021/11/15 08:06:15;;;;;;;5.03;4.53;;;;;;;;;;5069627;28;20040;-82
2021/11/15 08:08:41;;;;;;;4.70;4.22;;;;;;;;;;5055595;28;20266;-82
2021/11/15 08:11:08;;;;;;;4.78;4.10;;;;;;;;;;5052300;28;20083;-81
2021/11/15 08:13:34;;;;;;;4.50;4.10;;;;;;;;;;5078352;28;20052;-82
2021/11/15 08:16:01;;;;;;;4.43;4.03;;;;;;;;;;5058028;28;20086;-81
2021/11/15 08:18:27;;;;;;;4.70;4.30;;;;;;;;;;5078878;28;20367;-82
2021/11/15 08:20:53;;;;;;;4.57;4.18;;;;;;;;;;5061525;28;20086;-82
2021/11/15 08:23:20;;;;;;;4.22;3.83;;;;;;;;;;5053659;28;20103;-82
2021/11/15 08:25:58;;;;;;;6.00;4.60;;;;;;;;;;5078219;28;20028;-82
2021/11/15 08:28:25;;;;;;;4.95;4.45;;;;;;;;;;5070377;28;20480;-81
2021/11/15 08:30:52;;;;;;;4.40;4.00;;;;;;;;;;5069346;28;20097;-81
2021/11/15 08:33:18;;;;;;;5.22;4.18;;;;;;;;;;5060372;28;20537;-81
2021/11/15 08:35:48;;;;;;;4.47;4.00;;;;;;;;;;5064895;28;20056;-82
2021/11/15 08:38:14;;;;;;;;;;;;;;;;;;5070549;28;20040;-81
2021/11/15 08:40:40;;;;;;;5.60;4.13;;;;;;;;;;5071040;28;19969;-82
2021/11/15 08:43:06;;;;;;;5.45;4.25;;;;;;;;;;5069248;28;20040;-81
2021/11/15 08:45:32;;;;;;;4.55;4.15;;;;;;;;;;5069828;28;20365;-82
2021/11/15 08:47:59;;;;;;;4.50;3.97;;;;;;;;;;5060114;28;20233;-81
2021/11/15 08:50:25;;;;;;;4.50;4.05;;;;;;;;;;5069539;28;20040;-80
2021/11/15 08:52:51;;;;;;;4.03;3.63;;;;;;;;;;5052552;28;20123;-82
2021/11/15 08:55:17;;;;;;;4.22;3.83;;;;;;;;;;5068917;28;20040;-81
2021/11/15 08:57:43;;;;;;;4.95;3.53;;;;;;;;;;5064569;28;20048;-81
2021/11/15 09:00:10;;;;;;;4.22;3.67;;;;;;;;;;5070165;28;20043;-80
2021/11/15 09:02:36;;;;;;;3.75;3.47;;;;;;;;;;5078450;28;20084;-81
2021/11/15 09:05:02;;;;;;;3.60;3.30;;;;;;;;;;5068664;28;20036;-81
2021/11/15 09:07:32;;;;;;;4.75;3.75;;;;;;;;;;5053679;28;20137;-81
2021/11/15 09:09:58;;;;;;;;;;;;;;;;;;5063234;28;20491;-81
2021/11/15 09:12:24;;;;;;;5.03;3.95;;;;;;;;;;5083191;28;19965;-81
2021/11/15 09:14:51;;;;;;;4.05;3.53;;;;;;;;;;5068652;28;20040;-81
2021/11/15 09:17:18;;;;;;;4.13;3.58;;;;;;;;;;5066443;28;20048;-81
2021/11/15 09:19:44;;;;;;;4.90;3.60;;;;;;;;;;5055104;28;20070;-81
2021/11/15 09:22:10;;;;;;;3.85;3.40;;;;;;;;;;5068486;28;20059;-82
2021/11/15 09:24:36;;;;;;;5.18;3.78;;;;;;;;;;5045093;28;20052;-82
2021/11/15 09:27:04;;;;;;;3.72;3.33;;;;;;;;;;5082685;28;20072;-82
2021/11/15 09:29:30;;;;;;;3.90;3.50;;;;;;;;;;5084407;28;20040;-81
2021/11/15 09:31:56;;;;;;;3.97;3.55;;;;;;;;;;5067503;28;20086;-83
2021/11/15 09:34:23;;;;;;;3.45;2.88;;;;;;;;;;5052058;28;20499;-80
2021/11/15 09:36:49;;;;;;;3.95;3.53;;;;;;;;;;5061274;28;20036;-81
2021/11/15 09:39:15;;;;;;;3.90;3.50;;;;;;;;;;5072810;28;20044;-82
2021/11/15 09:41:44;;;;;;;5.20;3.55;;;;;;;;;;4980165;28;20048;-83
2021/11/15 09:44:11;;;;;;;5.95;3.58;;;;;;;;;;5062890;28;20036;-91
2021/11/15 09:46:37;;;;;;;4.25;3.85;;;;;;;;;;5050290;28;20547;-88
2021/11/15 09:49:12;;;;;;;3.47;3.05;;;;;;;;;;5060412;28;20135;-89
2021/11/15 09:51:46;;;;;;;3.17;2.97;;;;;;;;;;5069781;28;20396;-83
2021/11/15 09:54:12;;;;;;;9.52;3.53;;;;;;;;;;5048192;28;20075;-87
2021/11/15 09:56:39;;;;;;;3.33;2.85;;;;;;;;;;5083580;28;20479;-88
2021/11/15 09:59:17;;;;;;;3.50;3.20;;;;;;;;;;5052281;28;20127;-92
2021/11/15 10:01:45;;;;;;;3.30;3.03;;;;;;;;;;5068652;28;20101;-90
2021/11/15 10:04:13;;;;;;;7.18;2.65;;;;;;;;;;5083835;28;20052;-82
2021/11/15 10:06:41;;;;;;;9.68;4.25;;;;;;;;;;5082146;28;20059;-86
2021/11/15 10:09:07;;;;;;;6.78;3.70;;;;;;;;;;5039041;28;20074;-85
2021/11/15 10:11:39;;;;;;;3.95;3.45;;;;;;;;;;5064969;28;20049;-84
2021/11/15 10:14:05;;;;;;;15.38;3.80;;;;;;;;;;5061997;28;20117;-86
2021/11/15 10:16:33;;;;;;;4.22;3.45;;;;;;;;;;5040363;28;20119;-86
2021/11/15 10:19:04;;;;;;;4.40;3.38;;;;;;;;;;5070985;28;20075;-84
2021/11/15 10:21:33;;;;;;;3.33;2.72;;;;;;;;;;5082084;28;20048;-87
2021/11/15 10:24:13;;;;;;;5.75;3.40;;;;;;;;;;5065854;28;20044;-87
2021/11/15 10:26:51;;;;;;;4.07;3.20;;;;;;;;;;5076464;28;20564;-88
2021/11/15 10:29:18;;;;;;;3.53;3.10;;;;;;;;;;5057015;28;20163;-87
2021/11/15 10:31:50;;;;;;;16.70;3.53;;;;;;;;;;5068599;28;20075;-87
2021/11/15 10:34:25;;;;;;;4.07;3.17;;;;;;;;;;5069507;28;20155;-88
2021/11/15 10:36:51;;;;;;;4.63;3.00;;;;;;;;;;5075561;28;20071;-87
2021/11/15 10:39:18;;;;;;;5.18;2.90;;;;;;;;;;5055258;28;20063;-87
2021/11/15 10:41:55;;;;;;;6.05;2.90;;;;;;;;;;5052977;28;20094;-87
2021/11/15 10:44:21;;;;;;;6.53;3.15;;;;;;;;;;5059186;28;20042;-87
2021/11/15 10:46:51;;;;;;;4.85;3.40;;;;;;;;;;5066787;28;20076;-88
2021/11/15 10:49:18;;;;;;;6.15;2.78;;;;;;;;;;5053394;28;20468;-87
2021/11/15 10:51:51;;;;;;;4.05;3.40;;;;;;;;;;5068664;28;20036;-87
2021/11/15 10:54:54;;;;;;;3.38;3.08;;;;;;;;;;5068469;28;20924;-87
2021/11/15 10:57:26;;;;;;;5.90;3.35;;;;;;;;;;5069548;28;20044;-86
2021/11/15 11:00:08;;;;;;;5.22;3.38;;;;;;;;;;5078537;28;20472;-88
2021/11/15 11:02:37;;;;;;;3.63;3.00;;;;;;;;;;5057228;28;20473;-87
2021/11/15 11:05:11;;;;;;;3.42;3.13;;;;;;;;;;5062679;28;20051;-91
2021/11/15 11:07:38;;;;;;;3.40;3.10;;;;;;;;;;5065236;28;20440;-90
2021/11/15 11:10:08;;;;;;;4.88;3.20;;;;;;;;;;5066768;28;20046;-89
2021/11/15 11:12:35;;;;;;;6.30;3.42;;;;;;;;;;5061415;28;20059;-90
2021/11/15 11:15:27;;;;;;;3.58;3.22;;;;;;;;;;5047151;28;20036;-90
2021/11/15 11:17:58;;;;;;;4.28;3.20;;;;;;;;;;5056523;28;20079;-90
2021/11/15 11:20:32;;;;;;;2.88;2.67;;;;;;;;;;5068228;28;20673;-90
2021/11/15 11:25:53;;;;;;;4.07;3.30;;;;;;;;;;5085528;28;20089;-87
2021/11/15 11:28:30;;;;;;;3.43;3.13;;;;;;;;;;5073350;28;20048;-88
2021/11/15 11:30:58;;;;;;;5.53;3.65;;;;;;;;;;5072389;28;20530;-88
2021/11/15 11:33:27;;;;;;;5.72;3.70;;;;;;;;;;5065180;28;20126;-88
2021/11/15 11:35:53;;;;;;;4.17;3.37;;;;;;;;;;5084093;28;20499;-88
2021/11/15 11:38:20;;;;;;;4.55;3.75;;;;;;;;;;5068148;28;20045;-88
2021/11/15 11:40:47;;;;;;;5.65;3.60;;;;;;;;;;5044338;28;20051;-88
2021/11/15 11:43:13;;;;;;;4.80;3.83;;;;;;;;;;5044124;28;20067;-89
2021/11/15 11:45:40;;;;;;;3.95;3.53;;;;;;;;;;5074787;28;20123;-87
2021/11/15 11:48:06;;;;;;;5.03;3.80;;;;;;;;;;5052378;28;20101;-87
2021/11/15 11:50:33;;;;;;;4.18;3.75;;;;;;;;;;5058579;28;20043;-86
2021/11/15 11:53:07;;;;;;;6.97;4.10;;;;;;;;;;5066608;28;20035;-86
2021/11/15 11:55:34;;;;;;;4.40;3.60;;;;;;;;;;5062500;28;20516;-87
2021/11/15 11:58:19;;;;;;;3.95;3.58;;;;;;;;;;5040715;28;20068;-86
2021/11/15 12:00:47;;;;;;;4.03;3.60;;;;;;;;;;5056176;28;20042;-86
2021/11/15 12:03:13;;;;;;;5.55;4.40;;;;;;;;;;5074610;28;20089;-87
2021/11/15 12:05:39;;;;;;;5.22;3.95;;;;;;;;;;5070781;28;20036;-86
2021/11/15 12:08:09;;;;;;;4.97;4.13;;;;;;;;;;5062684;28;20047;-88
2021/11/15 12:10:46;;;;;;;5.68;4.03;;;;;;;;;;5066329;28;20047;-86
2021/11/15 12:13:13;;;;;;;4.60;4.20;;;;;;;;;;5072576;28;20087;-87
2021/11/15 12:15:39;;;;;;;4.90;4.32;;;;;;;;;;5060686;28;20383;-82
2021/11/15 12:18:07;;;;;;;5.80;4.50;;;;;;;;;;5063441;28;20047;-86
2021/11/15 12:20:33;;;;;;;6.03;4.45;;;;;;;;;;5074123;28;20052;-84
2021/11/15 12:23:11;;;;;;;6.28;4.30;;;;;;;;;;5072448;28;20043;-82
2021/11/15 12:25:37;;;;;;;6.45;4.70;;;;;;;;;;5070653;28;20040;-84
2021/11/15 12:28:03;;;;;;;5.70;5.00;;;;;;;;;;5075711;28;20072;-84
2021/11/15 12:30:34;;;;;;;6.30;5.05;;;;;;;;;;5040111;28;20037;-84
2021/11/15 12:33:20;;;;;;;5.45;4.70;;;;;;;;;;5070104;28;20048;-84
2021/11/15 12:35:50;;;;;;;7.03;5.25;;;;;;;;;;5070293;28;20048;-84
2021/11/15 12:38:29;;;;;;;8.30;5.10;;;;;;;;;;5072199;28;20047;-85
2021/11/15 12:40:55;;;;;;;6.40;5.03;;;;;;;;;;5058985;28;20044;-85
2021/11/15 12:43:21;;;;;;;9.57;6.05;;;;;;;;;;5050494;28;20383;-84
2021/11/15 12:45:51;;;;;;;7.93;5.55;;;;;;;;;;5075662;28;20054;-85
2021/11/15 12:48:37;;;;;;;9.30;6.43;;;;;;;;;;5066909;28;20501;-84
2021/11/15 12:51:10;;;;;;;8.95;6.63;;;;;;;;;;5060005;28;20060;-85
2021/11/15 12:53:37;;;;;;;9.10;6.57;;;;;;;;;;5067220;28;20040;-84
2021/11/15 12:56:03;;;;;;;8.23;6.07;;;;;;;;;;5042826;28;20121;-84
2021/11/15 12:58:29;;;;;;;9.20;6.43;;;;;;;;;;5063498;28;20051;-84
2021/11/15 13:00:56;;;;;;;10.82;7.22;;;;;;;;;;5049767;28;20037;-84
2021/11/15 13:03:22;;;;;;;10.32;7.75;;;;;;;;;;5050316;28;20048;-83
2021/11/15 13:05:50;;;;;;;12.57;8.20;;;;;;;;;;5050294;28;20076;-83
2021/11/15 13:08:16;;;;;;;14.25;8.48;;;;;;;;;;5040072;28;20086;-83
2021/11/15 13:10:51;;;;;;;13.80;8.90;;;;;;;;;;5055411;28;20032;-82
2021/11/15 13:13:17;;;;;;;12.10;8.45;;;;;;;;;;5066675;28;20040;-82
2021/11/15 13:15:44;;;;;;;12.85;8.90;;;;;;;;;;5041760;28;20040;-84
2021/11/15 13:18:10;;;;;;;12.95;8.85;;;;;;;;;;5085819;28;20036;-85
2021/11/15 13:20:36;;;;;;;13.30;8.65;;;;;;;;;;5064036;28;20047;-83
2021/11/15 13:23:03;;;;;;;10.93;8.55;;;;;;;;;;5063565;28;20044;-82
2021/11/15 13:25:30;;;;;;;14.15;9.23;;;;;;;;;;5076016;28;20075;-82
2021/11/15 13:27:56;;;;;;;15.57;10.10;;;;;;;;;;5063721;28;20052;-83
2021/11/15 13:30:23;;;;;;;15.57;9.40;;;;;;;;;;5048138;28;20040;-85
2021/11/15 13:32:50;;;;;;;12.75;9.38;;;;;;;;;;5053572;28;20151;-83
2021/11/15 13:35:17;;;;;;;17.10;10.57;;;;;;;;;;5056025;28;20055;-84
2021/11/15 13:37:43;;;;;;;15.70;9.95;;;;;;;;;;5061615;28;20543;-83
2021/11/15 13:40:09;;;;;;;16.55;10.15;;;;;;;;;;5049087;28;20067;-83
2021/11/15 13:42:35;;;;;;;18.17;10.80;;;;;;;;;;5076282;28;20117;-83
2021/11/15 13:45:02;;;;;;;16.35;10.18;;;;;;;;;;5066741;28;20036;-80
2021/11/15 13:53:41;;;;;;;30.10;15.52;;;23.20;99.90;;;;;;5131014;27;1280850;-87
2021/11/15 13:56:10;;;;;;;24.77;13.43;;;21.60;99.90;;;;;;5127355;27;20074;-86
2021/11/15 13:58:36;;;;;;;24.33;13.30;;;20.10;99.90;;;;;;5106288;27;20493;-88
2021/11/15 14:01:04;;;;;;;18.90;12.02;;;19.30;99.90;;;;;;5124095;27;20289;-87
2021/11/15 14:03:30;;;;;;;22.77;12.75;;;19.00;99.90;;;;;;5162395;27;20050;-87
2021/11/15 14:05:56;;;;;;;18.65;12.13;;;18.80;99.90;;;;;;5123828;27;20094;-87
2021/11/15 14:08:21;;;;;;;21.17;12.88;;;18.70;99.90;;;;;;5112177;27;20046;-87
2021/11/15 14:10:47;;;;;;;20.02;12.40;;;18.70;99.90;;;;;;5108785;27;20043;-87
2021/11/15 14:13:13;;;;;;;21.52;12.48;;;18.70;99.90;;;;;;5147023;27;20042;-87
2021/11/15 14:15:39;;;;;;;23.50;12.70;;;18.70;99.90;;;;;;5124692;27;20099;-89
2021/11/15 14:18:05;;;;;;;19.90;11.80;;;18.60;99.90;;;;;;5102734;27;20043;-90
2021/11/15 14:20:31;;;;;;;18.42;11.95;;;18.60;99.90;;;;;;5125994;27;20046;-90
2021/11/15 14:22:57;;;;;;;19.08;12.27;;;18.60;99.90;;;;;;5129917;27;20042;-89
2021/11/15 14:25:23;;;;;;;21.85;13.32;;;18.60;99.90;;;;;;5114617;27;20043;-90
2021/11/15 14:27:49;;;;;;;18.30;12.23;;;18.60;99.90;;;;;;5120917;27;20486;-94
2021/11/15 14:30:15;;;;;;;20.85;13.05;;;18.60;99.90;;;;;;5116290;27;20075;-91
2021/11/15 14:32:41;;;;;;;21.70;12.70;;;18.60;99.90;;;;;;5130720;27;20043;-91
2021/11/15 14:35:08;;;;;;;20.05;12.07;;;18.60;99.90;;;;;;5103737;27;20047;-89
2021/11/15 14:37:35;;;;;;;20.30;12.75;;;18.60;99.90;;;;;;5140751;27;20073;-90
2021/11/15 14:40:00;;;;;;;19.58;12.70;;;18.60;99.90;;;;;;5124697;27;20366;-90
2021/11/15 14:42:26;;;;;;;20.88;13.00;;;18.60;99.90;;;;;;5130740;27;20084;-90
2021/11/15 14:44:52;;;;;;;20.10;12.50;;;18.60;99.90;;;;;;5127866;27;20043;-88